sensor_id;sensor_type;location;lat;lon;timestamp;P1;durP1;ratioP1;P2;durP2;ratioP2
37383;SDS011;23258;49.718;11.082;2023-05-17T00:02:10;3.20;;;1.35;;
37383;SDS011;23258;49.718;11.082;2023-05-17T00:04:40;4.30;;;1.27;;
37383;SDS011;23258;49.718;11.082;2023-05-17T00:07:10;1.08;;;1.08;;
37383;SDS011;23258;49.718;11.082;2023-05-17T00:09:43;1.75;;;1.13;;
37383;SDS011;23258;49.718;11.082;2023-05-17T00:12:12;1.80;;;0.82;;
37383;SDS011;23258;49.718;11.082;2023-05-17T00:14:42;1.95;;;1.35;;
37383;SDS011;23258;49.718;11.082;2023-05-17T00:17:12;2.58;;;1.20;;
37383;SDS011;23258;49.718;11.082;2023-05-17T00:19:42;4.07;;;1.63;;
37383;SDS011;23258;49.718;11.082;2023-05-17T00:22:12;1.35;;;1.25;;
37383;SDS011;23258;49.718;11.082;2023-05-17T00:24:44;1.50;;;1.40;;
37383;SDS011;23258;49.718;11.082;2023-05-17T00:27:14;1.73;;;1.30;;
37383;SDS011;23258;49.718;11.082;2023-05-17T00:29:44;0.90;;;0.90;;
37383;SDS011;23258;49.718;11.082;2023-05-17T00:32:13;0.80;;;0.80;;
37383;SDS011;23258;49.718;11.082;2023-05-17T00:34:43;1.52;;;1.10;;
37383;SDS011;23258;49.718;11.082;2023-05-17T00:37:13;0.98;;;0.98;;
37383;SDS011;23258;49.718;11.082;2023-05-17T00:39:45;2.08;;;1.33;;
37383;SDS011;23258;49.718;11.082;2023-05-17T00:42:15;3.25;;;1.52;;
37383;SDS011;23258;49.718;11.082;2023-05-17T00:44:46;1.30;;;1.20;;
37383;SDS011;23258;49.718;11.082;2023-05-17T00:47:15;0.90;;;0.90;;
37383;SDS011;23258;49.718;11.082;2023-05-17T00:49:45;1.48;;;1.15;;
37383;SDS011;23258;49.718;11.082;2023-05-17T00:52:15;3.78;;;1.25;;
37383;SDS011;23258;49.718;11.082;2023-05-17T00:54:47;2.90;;;1.60;;
37383;SDS011;23258;49.718;11.082;2023-05-17T00:57:18;0.77;;;0.77;;
37383;SDS011;23258;49.718;11.082;2023-05-17T00:59:48;2.22;;;1.17;;
37383;SDS011;23258;49.718;11.082;2023-05-17T01:02:22;1.48;;;1.27;;
37383;SDS011;23258;49.718;11.082;2023-05-17T01:04:52;0.80;;;0.80;;
37383;SDS011;23258;49.718;11.082;2023-05-17T01:07:22;1.08;;;0.80;;
37383;SDS011;23258;49.718;11.082;2023-05-17T01:09:54;1.15;;;1.05;;
37383;SDS011;23258;49.718;11.082;2023-05-17T01:12:29;2.28;;;1.52;;
37383;SDS011;23258;49.718;11.082;2023-05-17T01:15:04;1.05;;;0.98;;
37383;SDS011;23258;49.718;11.082;2023-05-17T01:17:38;2.10;;;1.48;;
37383;SDS011;23258;49.718;11.082;2023-05-17T01:20:11;1.70;;;1.23;;
37383;SDS011;23258;49.718;11.082;2023-05-17T01:22:47;1.52;;;1.40;;
37383;SDS011;23258;49.718;11.082;2023-05-17T01:25:25;4.38;;;1.05;;
37383;SDS011;23258;49.718;11.082;2023-05-17T01:28:00;3.20;;;1.13;;
37383;SDS011;23258;49.718;11.082;2023-05-17T01:30:30;1.50;;;1.25;;
37383;SDS011;23258;49.718;11.082;2023-05-17T01:33:01;1.20;;;1.05;;
37383;SDS011;23258;49.718;11.082;2023-05-17T01:35:31;1.08;;;1.00;;
37383;SDS011;23258;49.718;11.082;2023-05-17T01:38:01;1.02;;;0.98;;
37383;SDS011;23258;49.718;11.082;2023-05-17T01:40:31;1.35;;;1.30;;
37383;SDS011;23258;49.718;11.082;2023-05-17T01:43:06;0.93;;;0.93;;
37383;SDS011;23258;49.718;11.082;2023-05-17T01:45:39;3.05;;;1.40;;
37383;SDS011;23258;49.718;11.082;2023-05-17T01:48:12;1.23;;;0.98;;
37383;SDS011;23258;49.718;11.082;2023-05-17T01:50:42;1.77;;;1.20;;
37383;SDS011;23258;49.718;11.082;2023-05-17T01:53:16;3.55;;;1.35;;
37383;SDS011;23258;49.718;11.082;2023-05-17T01:55:48;1.73;;;1.48;;
37383;SDS011;23258;49.718;11.082;2023-05-17T01:58:24;1.02;;;1.02;;
37383;SDS011;23258;49.718;11.082;2023-05-17T02:00:55;1.23;;;1.13;;
37383;SDS011;23258;49.718;11.082;2023-05-17T02:03:26;1.08;;;1.00;;
37383;SDS011;23258;49.718;11.082;2023-05-17T02:05:56;1.00;;;1.00;;
37383;SDS011;23258;49.718;11.082;2023-05-17T02:08:25;3.33;;;1.10;;
37383;SDS011;23258;49.718;11.082;2023-05-17T02:10:55;1.08;;;1.02;;
37383;SDS011;23258;49.718;11.082;2023-05-17T02:13:28;1.13;;;1.05;;
37383;SDS011;23258;49.718;11.082;2023-05-17T02:15:58;1.50;;;1.30;;
37383;SDS011;23258;49.718;11.082;2023-05-17T02:18:28;1.17;;;0.77;;
37383;SDS011;23258;49.718;11.082;2023-05-17T02:21:01;1.25;;;1.10;;
37383;SDS011;23258;49.718;11.082;2023-05-17T02:23:31;2.10;;;1.13;;
37383;SDS011;23258;49.718;11.082;2023-05-17T02:26:00;1.10;;;1.10;;
37383;SDS011;23258;49.718;11.082;2023-05-17T02:28:33;1.35;;;1.27;;
37383;SDS011;23258;49.718;11.082;2023-05-17T02:31:02;0.90;;;0.90;;
37383;SDS011;23258;49.718;11.082;2023-05-17T02:33:32;1.48;;;1.33;;
37383;SDS011;23258;49.718;11.082;2023-05-17T02:36:03;0.88;;;0.88;;
37383;SDS011;23258;49.718;11.082;2023-05-17T02:38:33;1.20;;;1.10;;
37383;SDS011;23258;49.718;11.082;2023-05-17T02:41:03;1.95;;;1.27;;
37383;SDS011;23258;49.718;11.082;2023-05-17T02:43:36;1.23;;;1.13;;
37383;SDS011;23258;49.718;11.082;2023-05-17T02:46:06;1.50;;;1.27;;
37383;SDS011;23258;49.718;11.082;2023-05-17T02:48:35;1.15;;;1.13;;
37383;SDS011;23258;49.718;11.082;2023-05-17T02:51:05;1.30;;;1.20;;
37383;SDS011;23258;49.718;11.082;2023-05-17T02:53:35;1.43;;;1.33;;
37383;SDS011;23258;49.718;11.082;2023-05-17T02:56:05;1.13;;;1.13;;
37383;SDS011;23258;49.718;11.082;2023-05-17T02:58:38;1.10;;;1.10;;
37383;SDS011;23258;49.718;11.082;2023-05-17T03:01:08;1.77;;;1.30;;
37383;SDS011;23258;49.718;11.082;2023-05-17T03:03:38;1.10;;;1.10;;
37383;SDS011;23258;49.718;11.082;2023-05-17T03:06:08;2.53;;;1.43;;
37383;SDS011;23258;49.718;11.082;2023-05-17T03:08:38;1.37;;;1.27;;
37383;SDS011;23258;49.718;11.082;2023-05-17T03:11:08;1.53;;;1.27;;
37383;SDS011;23258;49.718;11.082;2023-05-17T03:13:41;3.20;;;1.10;;
37383;SDS011;23258;49.718;11.082;2023-05-17T03:16:12;1.65;;;1.17;;
37383;SDS011;23258;49.718;11.082;2023-05-17T03:18:42;0.97;;;0.97;;
37383;SDS011;23258;49.718;11.082;2023-05-17T03:21:12;1.20;;;1.20;;
37383;SDS011;23258;49.718;11.082;2023-05-17T03:23:41;3.07;;;1.33;;
37383;SDS011;23258;49.718;11.082;2023-05-17T03:26:11;1.07;;;1.00;;
37383;SDS011;23258;49.718;11.082;2023-05-17T03:28:49;1.50;;;1.40;;
37383;SDS011;23258;49.718;11.082;2023-05-17T03:31:18;1.03;;;1.03;;
37383;SDS011;23258;49.718;11.082;2023-05-17T03:33:48;1.37;;;1.30;;
37383;SDS011;23258;49.718;11.082;2023-05-17T03:36:19;1.33;;;1.33;;
37383;SDS011;23258;49.718;11.082;2023-05-17T03:38:48;1.50;;;1.37;;
37383;SDS011;23258;49.718;11.082;2023-05-17T03:41:18;1.40;;;1.33;;
37383;SDS011;23258;49.718;11.082;2023-05-17T03:43:50;1.40;;;1.23;;
37383;SDS011;23258;49.718;11.082;2023-05-17T03:46:21;1.37;;;1.30;;
37383;SDS011;23258;49.718;11.082;2023-05-17T03:48:51;2.67;;;1.42;;
37383;SDS011;23258;49.718;11.082;2023-05-17T03:51:20;2.13;;;1.97;;
37383;SDS011;23258;49.718;11.082;2023-05-17T03:53:52;1.40;;;1.20;;
37383;SDS011;23258;49.718;11.082;2023-05-17T03:56:27;1.40;;;1.30;;
37383;SDS011;23258;49.718;11.082;2023-05-17T03:58:59;1.80;;;1.33;;
37383;SDS011;23258;49.718;11.082;2023-05-17T04:01:29;1.90;;;1.80;;
37383;SDS011;23258;49.718;11.082;2023-05-17T04:03:59;1.63;;;1.52;;
37383;SDS011;23258;49.718;11.082;2023-05-17T04:06:30;1.50;;;1.40;;
37383;SDS011;23258;49.718;11.082;2023-05-17T04:09:00;1.58;;;1.48;;
37383;SDS011;23258;49.718;11.082;2023-05-17T04:11:30;3.28;;;1.45;;
37383;SDS011;23258;49.718;11.082;2023-05-17T04:14:03;3.28;;;1.50;;
37383;SDS011;23258;49.718;11.082;2023-05-17T04:16:33;3.45;;;1.55;;
37383;SDS011;23258;49.718;11.082;2023-05-17T04:19:03;1.65;;;1.38;;
37383;SDS011;23258;49.718;11.082;2023-05-17T04:21:33;3.03;;;1.50;;
37383;SDS011;23258;49.718;11.082;2023-05-17T04:24:03;1.35;;;1.35;;
37383;SDS011;23258;49.718;11.082;2023-05-17T04:26:33;1.33;;;1.25;;
37383;SDS011;23258;49.718;11.082;2023-05-17T04:29:05;2.72;;;1.20;;
37383;SDS011;23258;49.718;11.082;2023-05-17T04:31:35;3.90;;;1.42;;
37383;SDS011;23258;49.718;11.082;2023-05-17T04:34:05;1.50;;;1.40;;
37383;SDS011;23258;49.718;11.082;2023-05-17T04:36:35;1.17;;;1.05;;
37383;SDS011;23258;49.718;11.082;2023-05-17T04:39:06;1.45;;;1.35;;
37383;SDS011;23258;49.718;11.082;2023-05-17T04:41:37;1.15;;;1.15;;
37383;SDS011;23258;49.718;11.082;2023-05-17T04:44:12;3.55;;;1.42;;
37383;SDS011;23258;49.718;11.082;2023-05-17T04:46:43;2.05;;;1.40;;
37383;SDS011;23258;49.718;11.082;2023-05-17T04:49:13;1.92;;;1.83;;
37383;SDS011;23258;49.718;11.082;2023-05-17T04:51:44;4.63;;;1.88;;
37383;SDS011;23258;49.718;11.082;2023-05-17T04:54:14;2.38;;;0.98;;
37383;SDS011;23258;49.718;11.082;2023-05-17T04:56:44;3.30;;;1.52;;
37383;SDS011;23258;49.718;11.082;2023-05-17T04:59:24;1.75;;;1.65;;
37383;SDS011;23258;49.718;11.082;2023-05-17T05:01:54;1.77;;;1.67;;
37383;SDS011;23258;49.718;11.082;2023-05-17T05:04:24;3.33;;;1.98;;
37383;SDS011;23258;49.718;11.082;2023-05-17T05:06:54;2.08;;;1.00;;
37383;SDS011;23258;49.718;11.082;2023-05-17T05:09:24;2.22;;;1.77;;
37383;SDS011;23258;49.718;11.082;2023-05-17T05:11:53;1.70;;;1.30;;
37383;SDS011;23258;49.718;11.082;2023-05-17T05:14:26;3.38;;;1.58;;
37383;SDS011;23258;49.718;11.082;2023-05-17T05:16:56;2.30;;;1.65;;
37383;SDS011;23258;49.718;11.082;2023-05-17T05:19:26;1.88;;;1.70;;
37383;SDS011;23258;49.718;11.082;2023-05-17T05:21:56;1.95;;;1.85;;
37383;SDS011;23258;49.718;11.082;2023-05-17T05:24:29;3.08;;;1.58;;
37383;SDS011;23258;49.718;11.082;2023-05-17T05:26:58;1.67;;;1.58;;
37383;SDS011;23258;49.718;11.082;2023-05-17T05:29:34;2.40;;;1.48;;
37383;SDS011;23258;49.718;11.082;2023-05-17T05:32:05;2.40;;;1.60;;
37383;SDS011;23258;49.718;11.082;2023-05-17T05:34:41;3.35;;;1.77;;
37383;SDS011;23258;49.718;11.082;2023-05-17T05:37:12;1.73;;;1.60;;
37383;SDS011;23258;49.718;11.082;2023-05-17T05:39:44;6.07;;;1.88;;
37383;SDS011;23258;49.718;11.082;2023-05-17T05:42:14;2.97;;;1.80;;
37383;SDS011;23258;49.718;11.082;2023-05-17T05:44:46;1.92;;;1.73;;
37383;SDS011;23258;49.718;11.082;2023-05-17T05:47:17;2.75;;;1.67;;
37383;SDS011;23258;49.718;11.082;2023-05-17T05:49:47;6.97;;;2.05;;
37383;SDS011;23258;49.718;11.082;2023-05-17T05:52:17;1.65;;;1.55;;
37383;SDS011;23258;49.718;11.082;2023-05-17T05:54:47;5.18;;;1.85;;
37383;SDS011;23258;49.718;11.082;2023-05-17T05:57:17;2.22;;;2.03;;
37383;SDS011;23258;49.718;11.082;2023-05-17T05:59:50;1.52;;;1.42;;
37383;SDS011;23258;49.718;11.082;2023-05-17T06:02:19;1.95;;;1.73;;
37383;SDS011;23258;49.718;11.082;2023-05-17T06:04:50;1.63;;;1.48;;
37383;SDS011;23258;49.718;11.082;2023-05-17T06:07:20;4.93;;;1.90;;
37383;SDS011;23258;49.718;11.082;2023-05-17T06:09:49;1.65;;;1.55;;
37383;SDS011;23258;49.718;11.082;2023-05-17T06:12:19;2.80;;;1.50;;
37383;SDS011;23258;49.718;11.082;2023-05-17T06:14:51;1.42;;;1.33;;
37383;SDS011;23258;49.718;11.082;2023-05-17T06:17:21;5.63;;;2.15;;
37383;SDS011;23258;49.718;11.082;2023-05-17T06:19:51;2.22;;;1.60;;
37383;SDS011;23258;49.718;11.082;2023-05-17T06:22:21;3.35;;;1.88;;
37383;SDS011;23258;49.718;11.082;2023-05-17T06:24:50;4.57;;;1.77;;
37383;SDS011;23258;49.718;11.082;2023-05-17T06:27:20;1.67;;;1.58;;
37383;SDS011;23258;49.718;11.082;2023-05-17T06:29:53;2.17;;;1.85;;
37383;SDS011;23258;49.718;11.082;2023-05-17T06:32:22;1.75;;;1.65;;
37383;SDS011;23258;49.718;11.082;2023-05-17T06:34:52;1.92;;;1.70;;
37383;SDS011;23258;49.718;11.082;2023-05-17T06:37:22;2.03;;;1.55;;
37383;SDS011;23258;49.718;11.082;2023-05-17T06:39:52;2.30;;;1.95;;
37383;SDS011;23258;49.718;11.082;2023-05-17T06:42:35;2.30;;;2.05;;
37383;SDS011;23258;49.718;11.082;2023-05-17T06:45:08;4.05;;;2.38;;
37383;SDS011;23258;49.718;11.082;2023-05-17T06:47:38;2.10;;;1.58;;
37383;SDS011;23258;49.718;11.082;2023-05-17T06:50:09;1.85;;;1.75;;
37383;SDS011;23258;49.718;11.082;2023-05-17T06:52:39;1.95;;;1.80;;
37383;SDS011;23258;49.718;11.082;2023-05-17T06:55:08;1.25;;;1.25;;
37383;SDS011;23258;49.718;11.082;2023-05-17T06:57:38;2.40;;;1.95;;
37383;SDS011;23258;49.718;11.082;2023-05-17T07:00:11;5.32;;;2.10;;
37383;SDS011;23258;49.718;11.082;2023-05-17T07:02:41;2.92;;;1.90;;
37383;SDS011;23258;49.718;11.082;2023-05-17T07:05:11;5.20;;;2.75;;
37383;SDS011;23258;49.718;11.082;2023-05-17T07:07:41;2.55;;;2.30;;
37383;SDS011;23258;49.718;11.082;2023-05-17T07:10:11;2.50;;;1.90;;
37383;SDS011;23258;49.718;11.082;2023-05-17T07:12:40;2.70;;;1.70;;
37383;SDS011;23258;49.718;11.082;2023-05-17T07:15:13;2.40;;;1.95;;
37383;SDS011;23258;49.718;11.082;2023-05-17T07:17:43;5.88;;;2.03;;
37383;SDS011;23258;49.718;11.082;2023-05-17T07:20:12;3.28;;;2.50;;
37383;SDS011;23258;49.718;11.082;2023-05-17T07:22:43;2.47;;;2.00;;
37383;SDS011;23258;49.718;11.082;2023-05-17T07:25:13;5.90;;;2.47;;
37383;SDS011;23258;49.718;11.082;2023-05-17T07:27:44;7.22;;;3.13;;
37383;SDS011;23258;49.718;11.082;2023-05-17T07:30:16;2.42;;;1.73;;
37383;SDS011;23258;49.718;11.082;2023-05-17T07:32:46;4.15;;;2.72;;
37383;SDS011;23258;49.718;11.082;2023-05-17T07:35:16;3.08;;;2.75;;
37383;SDS011;23258;49.718;11.082;2023-05-17T07:37:52;2.95;;;2.40;;
37383;SDS011;23258;49.718;11.082;2023-05-17T07:40:22;1.88;;;1.80;;
37383;SDS011;23258;49.718;11.082;2023-05-17T07:42:52;3.15;;;2.67;;
37383;SDS011;23258;49.718;11.082;2023-05-17T07:45:24;2.30;;;2.10;;
37383;SDS011;23258;49.718;11.082;2023-05-17T07:47:54;3.10;;;2.10;;
37383;SDS011;23258;49.718;11.082;2023-05-17T07:50:24;3.35;;;2.38;;
37383;SDS011;23258;49.718;11.082;2023-05-17T07:52:54;2.30;;;2.10;;
37383;SDS011;23258;49.718;11.082;2023-05-17T07:55:24;4.57;;;2.10;;
37383;SDS011;23258;49.718;11.082;2023-05-17T07:57:54;5.32;;;2.40;;
37383;SDS011;23258;49.718;11.082;2023-05-17T08:00:27;2.88;;;2.58;;
37383;SDS011;23258;49.718;11.082;2023-05-17T08:02:56;6.75;;;2.22;;
37383;SDS011;23258;49.718;11.082;2023-05-17T08:05:29;6.03;;;2.58;;
37383;SDS011;23258;49.718;11.082;2023-05-17T08:07:59;2.70;;;2.45;;
37383;SDS011;23258;49.718;11.082;2023-05-17T08:43:00;3.13;;;2.55;;
37383;SDS011;23258;49.718;11.082;2023-05-17T08:45:30;4.60;;;2.22;;
37383;SDS011;23258;49.718;11.082;2023-05-17T08:48:02;2.83;;;2.00;;
37383;SDS011;23258;49.718;11.082;2023-05-17T08:50:32;5.70;;;2.42;;
37383;SDS011;23258;49.718;11.082;2023-05-17T08:53:03;7.22;;;2.70;;
37383;SDS011;23258;49.718;11.082;2023-05-17T08:55:33;2.40;;;2.20;;
37383;SDS011;23258;49.718;11.082;2023-05-17T08:58:06;2.58;;;1.90;;
37383;SDS011;23258;49.718;11.082;2023-05-17T09:00:36;3.60;;;2.63;;
37383;SDS011;23258;49.718;11.082;2023-05-17T09:03:06;3.22;;;2.28;;
37383;SDS011;23258;49.718;11.082;2023-05-17T09:05:36;6.38;;;2.25;;
37383;SDS011;23258;49.718;11.082;2023-05-17T09:08:06;4.07;;;2.42;;
37383;SDS011;23258;49.718;11.082;2023-05-17T09:10:39;2.58;;;2.28;;
37383;SDS011;23258;49.718;11.082;2023-05-17T09:13:12;2.17;;;1.95;;
37383;SDS011;23258;49.718;11.082;2023-05-17T09:15:42;2.05;;;1.92;;
37383;SDS011;23258;49.718;11.082;2023-05-17T09:18:12;2.40;;;1.70;;
37383;SDS011;23258;49.718;11.082;2023-05-17T09:20:48;3.85;;;2.50;;
37383;SDS011;23258;49.718;11.082;2023-05-17T09:23:19;3.13;;;2.20;;
37383;SDS011;23258;49.718;11.082;2023-05-17T09:25:49;4.10;;;2.10;;
37383;SDS011;23258;49.718;11.082;2023-05-17T09:28:21;3.15;;;1.95;;
37383;SDS011;23258;49.718;11.082;2023-05-17T09:30:55;4.22;;;2.17;;
37383;SDS011;23258;49.718;11.082;2023-05-17T09:33:24;4.72;;;1.90;;
37383;SDS011;23258;49.718;11.082;2023-05-17T09:35:54;3.05;;;2.20;;
37383;SDS011;23258;49.718;11.082;2023-05-17T09:38:24;2.33;;;2.13;;
37383;SDS011;23258;49.718;11.082;2023-05-17T09:40:54;3.72;;;2.03;;
37383;SDS011;23258;49.718;11.082;2023-05-17T09:43:27;3.63;;;2.42;;
37383;SDS011;23258;49.718;11.082;2023-05-17T09:45:57;4.57;;;2.75;;
37383;SDS011;23258;49.718;11.082;2023-05-17T09:48:27;2.28;;;2.10;;
37383;SDS011;23258;49.718;11.082;2023-05-17T09:50:57;3.95;;;2.22;;
37383;SDS011;23258;49.718;11.082;2023-05-17T09:53:27;2.67;;;1.95;;
37383;SDS011;23258;49.718;11.082;2023-05-17T09:55:57;2.33;;;2.10;;
37383;SDS011;23258;49.718;11.082;2023-05-17T09:58:30;2.03;;;1.63;;
37383;SDS011;23258;49.718;11.082;2023-05-17T10:01:01;1.92;;;1.65;;
37383;SDS011;23258;49.718;11.082;2023-05-17T10:03:31;1.73;;;1.63;;
37383;SDS011;23258;49.718;11.082;2023-05-17T10:06:04;1.58;;;1.48;;
37383;SDS011;23258;49.718;11.082;2023-05-17T10:08:45;3.20;;;1.90;;
37383;SDS011;23258;49.718;11.082;2023-05-17T10:11:16;2.53;;;2.00;;
37383;SDS011;23258;49.718;11.082;2023-05-17T10:13:51;3.35;;;2.28;;
37383;SDS011;23258;49.718;11.082;2023-05-17T10:16:23;1.55;;;1.45;;
37383;SDS011;23258;49.718;11.082;2023-05-17T10:18:53;7.43;;;2.42;;
37383;SDS011;23258;49.718;11.082;2023-05-17T10:21:23;2.08;;;1.98;;
37383;SDS011;23258;49.718;11.082;2023-05-17T10:23:54;3.28;;;2.28;;
37383;SDS011;23258;49.718;11.082;2023-05-17T10:26:24;5.00;;;2.22;;
37383;SDS011;23258;49.718;11.082;2023-05-17T10:28:57;2.30;;;2.10;;
37383;SDS011;23258;49.718;11.082;2023-05-17T10:31:29;2.55;;;2.03;;
37383;SDS011;23258;49.718;11.082;2023-05-17T10:33:59;2.33;;;2.13;;
37383;SDS011;23258;49.718;11.082;2023-05-17T10:36:30;2.75;;;2.28;;
37383;SDS011;23258;49.718;11.082;2023-05-17T10:38:59;1.42;;;1.38;;
37383;SDS011;23258;49.718;11.082;2023-05-17T10:41:31;3.72;;;2.60;;
37383;SDS011;23258;49.718;11.082;2023-05-17T10:44:04;1.95;;;1.75;;
37383;SDS011;23258;49.718;11.082;2023-05-17T10:46:35;2.47;;;2.00;;
37383;SDS011;23258;49.718;11.082;2023-05-17T10:49:04;2.50;;;2.30;;
37383;SDS011;23258;49.718;11.082;2023-05-17T10:51:35;3.65;;;2.30;;
37383;SDS011;23258;49.718;11.082;2023-05-17T10:54:09;3.20;;;2.25;;
37383;SDS011;23258;49.718;11.082;2023-05-17T10:56:40;1.95;;;1.85;;
37383;SDS011;23258;49.718;11.082;2023-05-17T10:59:16;2.80;;;2.08;;
37383;SDS011;23258;49.718;11.082;2023-05-17T11:16:47;2.67;;;2.13;;
37383;SDS011;23258;49.718;11.082;2023-05-17T11:19:24;5.07;;;2.17;;
37383;SDS011;23258;49.718;11.082;2023-05-17T11:21:54;3.55;;;2.38;;
37383;SDS011;23258;49.718;11.082;2023-05-17T11:24:24;3.90;;;2.42;;
37383;SDS011;23258;49.718;11.082;2023-05-17T11:26:54;2.45;;;2.25;;
37383;SDS011;23258;49.718;11.082;2023-05-17T11:54:34;2.33;;;2.13;;
37383;SDS011;23258;49.718;11.082;2023-05-17T11:57:06;2.92;;;2.58;;
37383;SDS011;23258;49.718;11.082;2023-05-17T11:59:37;2.30;;;2.08;;
37383;SDS011;23258;49.718;11.082;2023-05-17T12:02:08;2.08;;;1.88;;
37383;SDS011;23258;49.718;11.082;2023-05-17T13:14:36;4.55;;;1.77;;
37383;SDS011;23258;49.718;11.082;2023-05-17T13:37:11;2.25;;;1.98;;
37383;SDS011;23258;49.718;11.082;2023-05-17T13:39:41;4.30;;;2.35;;
37383;SDS011;23258;49.718;11.082;2023-05-17T13:42:11;5.28;;;1.95;;
37383;SDS011;23258;49.718;11.082;2023-05-17T13:44:42;2.80;;;2.20;;
37383;SDS011;23258;49.718;11.082;2023-05-17T13:47:12;2.88;;;1.75;;
37383;SDS011;23258;49.718;11.082;2023-05-17T13:49:42;4.18;;;2.10;;
37383;SDS011;23258;49.718;11.082;2023-05-17T13:52:14;2.45;;;2.25;;
37383;SDS011;23258;49.718;11.082;2023-05-17T13:54:44;3.00;;;1.95;;
37383;SDS011;23258;49.718;11.082;2023-05-17T13:57:14;2.08;;;1.67;;
37383;SDS011;23258;49.718;11.082;2023-05-17T13:59:44;2.55;;;2.28;;
37383;SDS011;23258;49.718;11.082;2023-05-17T14:02:13;1.90;;;1.75;;
37383;SDS011;23258;49.718;11.082;2023-05-17T14:04:45;5.22;;;2.55;;
37383;SDS011;23258;49.718;11.082;2023-05-17T14:07:17;1.90;;;1.80;;
37383;SDS011;23258;49.718;11.082;2023-05-17T14:09:47;3.65;;;1.80;;
37383;SDS011;23258;49.718;11.082;2023-05-17T14:12:16;2.78;;;2.00;;
37383;SDS011;23258;49.718;11.082;2023-05-17T14:14:46;3.28;;;1.55;;
37383;SDS011;23258;49.718;11.082;2023-05-17T14:17:16;2.75;;;1.52;;
37383;SDS011;23258;49.718;11.082;2023-05-17T14:19:46;1.60;;;1.50;;
37383;SDS011;23258;49.718;11.082;2023-05-17T14:22:18;2.53;;;2.25;;
37383;SDS011;23258;49.718;11.082;2023-05-17T14:24:48;2.63;;;1.70;;
37383;SDS011;23258;49.718;11.082;2023-05-17T14:27:24;2.42;;;1.77;;
37383;SDS011;23258;49.718;11.082;2023-05-17T14:29:53;3.28;;;1.73;;
37383;SDS011;23258;49.718;11.082;2023-05-17T14:32:23;2.72;;;1.60;;
37383;SDS011;23258;49.718;11.082;2023-05-17T14:34:52;3.08;;;2.03;;
37383;SDS011;23258;49.718;11.082;2023-05-17T14:37:25;2.35;;;2.03;;
37383;SDS011;23258;49.718;11.082;2023-05-17T14:39:55;2.30;;;1.45;;
37383;SDS011;23258;49.718;11.082;2023-05-17T14:42:32;2.65;;;1.75;;
37383;SDS011;23258;49.718;11.082;2023-05-17T14:45:02;2.65;;;2.10;;
37383;SDS011;23258;49.718;11.082;2023-05-17T14:47:32;2.17;;;1.55;;
37383;SDS011;23258;49.718;11.082;2023-05-17T14:50:02;2.50;;;1.73;;
37383;SDS011;23258;49.718;11.082;2023-05-17T14:52:35;1.70;;;1.60;;
37383;SDS011;23258;49.718;11.082;2023-05-17T14:55:05;4.38;;;1.80;;
37383;SDS011;23258;49.718;11.082;2023-05-17T14:57:38;1.92;;;1.77;;
37383;SDS011;23258;49.718;11.082;2023-05-17T15:00:08;4.78;;;2.22;;
37383;SDS011;23258;49.718;11.082;2023-05-17T15:02:39;2.53;;;1.63;;
37383;SDS011;23258;49.718;11.082;2023-05-17T15:05:08;1.75;;;1.65;;
37383;SDS011;23258;49.718;11.082;2023-05-17T15:07:41;2.13;;;1.50;;
37383;SDS011;23258;49.718;11.082;2023-05-17T15:10:11;1.73;;;1.63;;
37383;SDS011;23258;49.718;11.082;2023-05-17T15:12:41;2.15;;;1.95;;
37383;SDS011;23258;49.718;11.082;2023-05-17T15:15:11;2.13;;;1.90;;
37383;SDS011;23258;49.718;11.082;2023-05-17T15:17:41;1.98;;;1.80;;
37383;SDS011;23258;49.718;11.082;2023-05-17T15:20:11;3.67;;;1.83;;
37383;SDS011;23258;49.718;11.082;2023-05-17T15:22:43;1.70;;;1.60;;
37383;SDS011;23258;49.718;11.082;2023-05-17T15:25:14;2.72;;;1.88;;
37383;SDS011;23258;49.718;11.082;2023-05-17T15:27:44;1.65;;;1.55;;
37383;SDS011;23258;49.718;11.082;2023-05-17T15:30:14;1.50;;;1.40;;
37383;SDS011;23258;49.718;11.082;2023-05-17T15:32:45;2.58;;;1.95;;
37383;SDS011;23258;49.718;11.082;2023-05-17T15:35:16;1.60;;;1.48;;
37383;SDS011;23258;49.718;11.082;2023-05-17T15:37:50;2.60;;;1.90;;
37383;SDS011;23258;49.718;11.082;2023-05-17T15:40:20;3.20;;;1.98;;
37383;SDS011;23258;49.718;11.082;2023-05-17T15:42:50;3.40;;;1.58;;
37383;SDS011;23258;49.718;11.082;2023-05-17T15:45:20;1.98;;;1.85;;
37383;SDS011;23258;49.718;11.082;2023-05-17T15:47:49;2.13;;;1.67;;
37383;SDS011;23258;49.718;11.082;2023-05-17T15:50:21;3.50;;;1.30;;
37383;SDS011;23258;49.718;11.082;2023-05-17T15:52:53;3.58;;;1.58;;
37383;SDS011;23258;49.718;11.082;2023-05-17T15:55:25;2.08;;;1.88;;
37383;SDS011;23258;49.718;11.082;2023-05-17T15:57:55;1.70;;;1.60;;
37383;SDS011;23258;49.718;11.082;2023-05-17T16:00:25;2.22;;;2.03;;
37383;SDS011;23258;49.718;11.082;2023-05-17T16:02:54;3.55;;;1.67;;
37383;SDS011;23258;49.718;11.082;2023-05-17T16:05:25;1.90;;;1.80;;
37383;SDS011;23258;49.718;11.082;2023-05-17T16:08:01;1.25;;;1.25;;
37383;SDS011;23258;49.718;11.082;2023-05-17T16:10:31;4.88;;;1.80;;
37383;SDS011;23258;49.718;11.082;2023-05-17T16:13:01;1.80;;;1.70;;
37383;SDS011;23258;49.718;11.082;2023-05-17T16:15:31;4.00;;;1.70;;
37383;SDS011;23258;49.718;11.082;2023-05-17T16:18:01;4.75;;;2.35;;
37383;SDS011;23258;49.718;11.082;2023-05-17T16:20:31;2.90;;;1.67;;
37383;SDS011;23258;49.718;11.082;2023-05-17T16:23:04;3.53;;;2.17;;
37383;SDS011;23258;49.718;11.082;2023-05-17T16:25:34;2.33;;;2.13;;
37383;SDS011;23258;49.718;11.082;2023-05-17T16:28:04;2.00;;;1.90;;
37383;SDS011;23258;49.718;11.082;2023-05-17T16:30:34;5.68;;;1.55;;
37383;SDS011;23258;49.718;11.082;2023-05-17T16:33:04;1.60;;;1.50;;
37383;SDS011;23258;49.718;11.082;2023-05-17T16:35:34;1.70;;;1.60;;
37383;SDS011;23258;49.718;11.082;2023-05-17T16:38:07;5.32;;;2.00;;
37383;SDS011;23258;49.718;11.082;2023-05-17T16:40:37;2.45;;;1.33;;
37383;SDS011;23258;49.718;11.082;2023-05-17T16:43:07;3.65;;;1.65;;
37383;SDS011;23258;49.718;11.082;2023-05-17T16:45:41;1.65;;;1.55;;
37383;SDS011;23258;49.718;11.082;2023-05-17T16:48:12;1.90;;;1.73;;
37383;SDS011;23258;49.718;11.082;2023-05-17T16:50:43;1.80;;;1.38;;
37383;SDS011;23258;49.718;11.082;2023-05-17T16:53:17;2.05;;;1.63;;
37383;SDS011;23258;49.718;11.082;2023-05-17T16:55:47;3.30;;;2.35;;
37383;SDS011;23258;49.718;11.082;2023-05-17T16:58:17;5.05;;;1.90;;
37383;SDS011;23258;49.718;11.082;2023-05-17T17:00:47;1.67;;;1.58;;
37383;SDS011;23258;49.718;11.082;2023-05-17T17:03:17;2.95;;;2.00;;
37383;SDS011;23258;49.718;11.082;2023-05-17T17:05:47;2.03;;;1.92;;
37383;SDS011;23258;49.718;11.082;2023-05-17T17:08:19;1.77;;;1.67;;
37383;SDS011;23258;49.718;11.082;2023-05-17T17:10:49;2.97;;;1.85;;
37383;SDS011;23258;49.718;11.082;2023-05-17T17:13:18;4.70;;;1.58;;
37383;SDS011;23258;49.718;11.082;2023-05-17T17:15:48;1.63;;;1.42;;
37383;SDS011;23258;49.718;11.082;2023-05-17T17:18:18;1.67;;;1.58;;
37383;SDS011;23258;49.718;11.082;2023-05-17T17:20:48;2.38;;;2.17;;
37383;SDS011;23258;49.718;11.082;2023-05-17T17:23:20;3.28;;;1.65;;
37383;SDS011;23258;49.718;11.082;2023-05-17T17:25:50;3.25;;;1.88;;
37383;SDS011;23258;49.718;11.082;2023-05-17T17:28:20;2.85;;;2.17;;
37383;SDS011;23258;49.718;11.082;2023-05-17T17:30:49;5.63;;;2.53;;
37383;SDS011;23258;49.718;11.082;2023-05-17T17:33:19;2.83;;;1.85;;
37383;SDS011;23258;49.718;11.082;2023-05-17T17:35:49;1.77;;;1.67;;
37383;SDS011;23258;49.718;11.082;2023-05-17T17:38:21;1.42;;;1.33;;